createdAt,value
2018-11-22T05:01:37.596Z,63.53
2018-11-22T05:04:18.446Z,60.73
2018-11-22T05:06:58.701Z,62.30
2018-11-22T12:18:08.551Z,60.57
2018-11-22T12:20:36.754Z,81.30
2018-11-22T12:23:05.158Z,61.77
2018-11-22T12:25:33.349Z,69.20
2018-11-22T12:28:02.267Z,62.73
2018-11-22T12:30:31.771Z,68.03
2018-11-22T12:33:05.190Z,60.87
2018-11-22T12:35:38.931Z,70.07
2018-11-22T12:38:12.540Z,68.13
2018-11-22T12:40:40.789Z,63.60
2018-11-22T12:43:08.954Z,65.17
2018-11-22T12:45:37.087Z,68.07
2018-11-22T12:48:05.298Z,71.13
2018-11-22T12:50:33.450Z,65.30
2018-11-22T12:53:01.583Z,70.27
2018-11-22T12:55:29.760Z,62.73
2018-11-22T12:57:57.924Z,66.87
2018-11-22T13:00:26.080Z,65.67
2018-11-22T13:02:54.231Z,70.40
2018-11-22T13:05:22.390Z,63.07
2018-11-22T13:07:50.515Z,57.33
2018-11-22T13:10:19.509Z,61.60
2018-11-22T13:12:48.579Z,68.43
2018-11-22T13:15:18.079Z,62.93
2018-11-22T13:17:46.372Z,62.97
2018-11-22T13:20:15.974Z,62.47
2018-11-22T13:22:44.129Z,60.87
2018-11-22T13:25:13.952Z,64.50
2018-11-22T13:27:42.443Z,65.90
2018-11-22T13:30:16.162Z,67.57
2018-11-22T13:32:45.041Z,64.60
2018-11-22T13:35:14.125Z,60.10
2018-11-22T13:37:43.511Z,62.87
2018-11-22T13:40:12.137Z,68.67
2018-11-22T13:42:41.308Z,63.77
2018-11-22T13:45:11.531Z,59.43
2018-11-22T13:47:41.127Z,59.83
2018-11-22T13:50:11.630Z,62.30
2018-11-22T13:52:39.968Z,67.10
2018-11-22T13:55:08.111Z,69.23
2018-11-22T13:57:36.810Z,66.50
2018-11-22T14:00:08.378Z,66.73
2018-11-22T14:02:36.521Z,68.03
2018-11-22T14:05:07.858Z,66.00
2018-11-22T14:07:33.554Z,67.20
2018-11-22T14:10:01.898Z,70.10
2018-11-22T14:12:30.338Z,67.53
2018-11-22T14:14:58.494Z,71.30
2018-11-22T14:17:26.682Z,64.50
2018-11-22T14:19:54.819Z,69.47
2018-11-22T14:22:22.982Z,63.40
2018-11-22T14:24:51.109Z,62.63
2018-11-22T14:27:19.290Z,73.30
2018-11-22T14:29:47.430Z,67.33
2018-11-22T14:32:15.581Z,70.37
2018-11-22T14:34:43.710Z,66.47
2018-11-22T14:37:11.883Z,68.30
2018-11-22T14:39:40.019Z,73.30
2018-11-22T14:42:08.163Z,68.20
2018-11-22T14:44:36.375Z,64.23
2018-11-22T14:47:04.634Z,67.43
2018-11-22T14:49:34.734Z,65.50
2018-11-22T14:52:02.916Z,63.93
2018-11-22T14:54:31.472Z,66.00
2018-11-22T14:56:59.659Z,65.27
2018-11-22T14:59:27.788Z,60.67
2018-11-22T15:01:55.938Z,63.50
2018-11-22T15:04:24.080Z,65.27
2018-11-22T15:06:52.234Z,70.33
2018-11-22T15:09:20.398Z,71.63
2018-11-22T15:11:48.588Z,69.07
2018-11-22T15:14:16.722Z,66.40
2018-11-22T15:16:44.870Z,63.83
2018-11-22T15:19:13.017Z,70.90
2018-11-22T15:21:41.166Z,68.50
2018-11-22T15:24:09.308Z,71.20
2018-11-22T15:26:37.486Z,76.70
2018-11-22T15:29:05.623Z,69.97
2018-11-22T15:31:33.779Z,75.40
2018-11-22T15:34:01.923Z,74.00
2018-11-22T15:36:30.091Z,72.00
2018-11-22T15:38:58.274Z,70.33
2018-11-22T15:41:26.462Z,80.73
2018-11-22T15:43:54.613Z,78.73
2018-11-22T15:46:22.883Z,76.07
2018-11-22T15:48:51.026Z,75.67
2018-11-22T15:51:19.194Z,78.87
2018-11-22T15:53:47.327Z,87.83
2018-11-22T15:56:15.498Z,83.07
2018-11-22T15:58:44.174Z,86.73
2018-11-22T16:01:12.436Z,85.13
2018-11-22T16:03:40.787Z,80.60
2018-11-22T16:06:09.167Z,88.93
2018-11-22T16:08:37.439Z,83.23
2018-11-22T16:11:06.351Z,84.73
2018-11-22T16:13:34.719Z,86.77
2018-11-22T16:16:03.215Z,101.07
2018-11-22T16:18:31.494Z,100.60
2018-11-22T16:20:59.914Z,82.83
2018-11-22T16:23:28.420Z,94.53
2018-11-22T16:25:56.609Z,96.67
2018-11-22T16:28:24.886Z,90.20
2018-11-22T16:30:53.395Z,98.53
2018-11-22T16:33:21.730Z,109.47
2018-11-22T16:35:50.018Z,95.30
2018-11-22T16:38:18.650Z,99.43
2018-11-22T16:40:48.497Z,124.20
2018-11-22T16:43:17.337Z,96.47
2018-11-22T16:45:45.671Z,84.83
2018-11-22T16:48:14.465Z,87.97
2018-11-22T16:50:43.450Z,80.20
2018-11-22T16:53:11.998Z,87.10
2018-11-22T16:55:40.477Z,83.13
2018-11-22T16:58:08.947Z,92.03
2018-11-22T17:00:38.509Z,85.83
2018-11-22T17:03:09.800Z,85.03
2018-11-22T17:05:39.523Z,87.60
2018-11-22T17:08:08.294Z,90.17
2018-11-22T17:10:36.932Z,87.90
2018-11-22T17:13:05.546Z,93.87
2018-11-22T17:15:35.012Z,86.57
2018-11-22T17:18:03.796Z,87.07
2018-11-22T17:20:32.503Z,80.37
2018-11-22T17:23:01.068Z,88.97
2018-11-22T17:25:30.570Z,83.30
2018-11-22T17:28:00.098Z,87.20
2018-11-22T17:30:29.694Z,84.50
2018-11-22T17:32:57.836Z,81.87
2018-11-22T17:35:26.962Z,88.50
2018-11-22T17:37:56.439Z,90.50
2018-11-22T17:40:26.877Z,88.30
2018-11-22T17:42:55.690Z,85.40
2018-11-22T17:45:33.982Z,79.37
2018-11-22T17:48:02.446Z,84.20
2018-11-22T17:50:32.276Z,84.30
2018-11-22T17:53:00.807Z,88.67
2018-11-22T17:55:30.189Z,84.20
2018-11-22T17:57:58.396Z,83.93
2018-11-22T18:00:29.005Z,79.60
2018-11-22T18:03:12.565Z,83.17
2018-11-22T18:05:41.756Z,83.20
2018-11-22T18:08:12.002Z,85.43
2018-11-22T18:10:41.131Z,89.67
2018-11-22T18:13:09.325Z,85.37
2018-11-22T18:15:41.121Z,90.17
2018-11-22T18:18:09.280Z,91.67
2018-11-22T18:20:37.462Z,92.40
2018-11-22T18:23:11.225Z,89.50
2018-11-22T18:25:34.474Z,82.33
2018-11-22T18:28:02.648Z,88.30
2018-11-22T18:30:32.127Z,88.63
2018-11-22T18:33:06.098Z,87.87
2018-11-22T18:35:34.272Z,92.07
2018-11-22T18:38:02.447Z,86.27
2018-11-22T18:40:32.042Z,85.43
2018-11-22T18:43:01.244Z,85.97
2018-11-22T18:45:30.540Z,83.97
2018-11-22T18:47:59.241Z,85.77
2018-11-22T18:50:28.645Z,97.20
2018-11-22T18:52:57.089Z,88.50
2018-11-22T18:55:25.313Z,88.70
2018-11-22T18:57:53.563Z,83.77
2018-11-22T19:00:27.638Z,94.27
2018-11-22T19:02:58.412Z,81.50
2018-11-22T19:05:26.818Z,90.40
2018-11-22T19:07:55.887Z,85.37
2018-11-22T19:10:25.502Z,99.90
2018-11-22T19:12:54.947Z,83.87
2018-11-22T19:15:24.631Z,92.63
2018-11-22T19:17:53.405Z,89.50
2018-11-22T19:20:24.206Z,89.20
2018-11-22T19:22:53.107Z,85.27
2018-11-22T19:25:22.006Z,90.07
2018-11-22T19:27:50.470Z,86.03
2018-11-22T19:30:20.403Z,87.93
2018-11-22T19:32:49.687Z,89.67
2018-11-22T19:35:19.082Z,77.73
2018-11-22T19:37:47.742Z,79.77
2018-11-22T19:40:17.916Z,78.03
2018-11-22T19:42:47.626Z,85.30
2018-11-22T19:45:17.114Z,76.23
2018-11-22T19:47:45.513Z,88.90
2018-11-22T19:50:15.503Z,80.37
2018-11-22T19:52:44.591Z,84.33
2018-11-22T19:55:14.739Z,76.90
2018-11-22T19:57:44.314Z,82.17
2018-11-22T20:00:15.508Z,81.77
2018-11-22T20:02:44.552Z,86.40
2018-11-22T20:05:13.891Z,78.07
2018-11-22T20:07:42.852Z,81.63
2018-11-22T20:10:14.999Z,75.23
2018-11-22T20:12:43.494Z,78.23
2018-11-22T20:15:12.021Z,82.43
2018-11-22T20:17:40.208Z,79.03
2018-11-22T20:20:09.607Z,81.27
2018-11-22T20:22:37.869Z,77.73
2018-11-22T20:25:06.077Z,88.60
2018-11-22T20:27:34.296Z,85.67
2018-11-22T20:30:02.654Z,76.57
2018-11-22T20:32:30.843Z,72.90
2018-11-22T20:34:59.006Z,80.57
2018-11-22T20:37:27.195Z,76.10
2018-11-22T20:39:55.367Z,73.40
2018-11-22T20:42:23.567Z,71.53
2018-11-22T20:44:51.754Z,79.87
2018-11-22T20:47:19.965Z,81.70
2018-11-22T20:49:48.139Z,87.63
2018-11-22T20:52:16.396Z,83.97
2018-11-22T20:54:44.562Z,82.03
2018-11-22T20:57:12.765Z,78.40
2018-11-22T20:59:40.942Z,77.33
2018-11-22T21:02:09.158Z,73.80
2018-11-22T21:04:37.454Z,75.47
2018-11-22T21:07:05.737Z,73.43
2018-11-22T21:09:33.968Z,73.57
2018-11-22T21:12:02.208Z,84.53
2018-11-22T21:14:30.396Z,78.67
2018-11-22T21:16:58.651Z,77.57
2018-11-22T21:19:26.867Z,80.27
2018-11-22T21:21:55.041Z,80.97
2018-11-22T21:24:23.263Z,86.67
2018-11-22T21:26:51.499Z,83.23
2018-11-22T21:29:19.699Z,79.00
2018-11-22T21:31:49.638Z,81.00
2018-11-22T21:34:17.822Z,81.57
2018-11-22T21:36:45.995Z,80.57
2018-11-22T21:39:14.173Z,70.80
2018-11-22T21:41:42.385Z,73.80
2018-11-22T21:44:10.552Z,88.73
2018-11-22T21:46:38.753Z,84.00
2018-11-22T21:49:06.942Z,73.93
2018-11-22T21:51:39.374Z,76.87
2018-11-22T21:54:03.873Z,76.00
2018-11-22T21:56:32.079Z,83.93
2018-11-22T21:59:00.305Z,79.97
